Aeroporto :
LOGIN :

Iscrizione | Disclaimer

   EN    FR    IT 

 










Sommario :    VFR   VFR Marginale   IFR   IFR Intensivo   IFR Molto Intensivo
Visibilità : 
Base nubi : 
>= 8 km
>= 3000ft
5 / 8 km
1000 / 3000 ft
1500m / 5 km
500 / 1000 ft
800 / 1500m
200 / 500 ft
< 800m
< 200 ft
Simboli :   Temporali  Nebbia  Neve Forte  Precipitazioni Forti  Vento > 20 kt
SIGMETs :   Varie  Temporali  Ghiacco  Turbolenza  Onda orograficha  Ceneri Vulcaniche






- Altitudine del aeroporto : 1400 ft


LSME - Luzern Emmen

ULTIMO METAR :
  • 280450Z 00000KT 9999 OVC070 11/10 Q1022 RMK BLU

METARs OBSOLETI :
  • 280420Z AUTO 00000KT 9999NDV OVC060 11/10 Q1022 RMK
  • 280350Z AUTO 00000KT 9999NDV -RA OVC052 11/10 Q1022 RMK
  • 280320Z AUTO 00000KT 9999NDV -RA OVC055 11/10 Q1022 RMK
  • 280250Z AUTO 00000KT 9999NDV -RA FEW036 BKN044 OVC051 11/10 Q1022 RERA RMK
  • 280220Z AUTO 00000KT 5000NDV RA SCT028 OVC038 11/10 Q1022 RMK
  • 280150Z AUTO 00000KT 6000NDV RA FEW024 BKN029 OVC034 11/10 Q1022 RMK
  • 280120Z AUTO 00000KT 6000NDV -RA SCT020 OVC029 12/11 Q1022 RERA RMK
  • 280050Z AUTO 00000KT 6000NDV RA FEW029 BKN040 BKN049 12/11 Q1022 RMK

Previsioni scadute.



MetMap, La meteo Aeronautica in un colpo d'occhio ! - Copyright ORBIFLY Dicembre 2007 - Disclaimer

ORBIFLY MET'MAP TEAM :

Programmazione e sviluppo : Alexandra Zaïnal
Concezione : Baudouin d'Aumeries
Supporto tecnico e logistico : Manuel Goepfert
Aiuto : Marc-Olivier Méhu
Aiuto per la traduzione : Arnaldo La Scala




FONTI E CREDITI :

   NOAA